Aérodrome :
LOGIN :

S'inscrire | Disclaimer

   EN    FR    IT 

 










Légende :    VFR   VFR Marginal   IFR   IFR Intensif   IFR Très Intensif
Visi : 
Plafond : 
>= 8 km
>= 3000ft
5 à 8 km
1000 à 3000 ft
1500m à 5 km
500 à 1000 ft
800 à 1500m
200 à 500 ft
< 800m
< 200 ft
Symboles :   Orages  Brouillard  Fortes neiges  Fortes précipitations  Vent > 20 kt
SIGMETs :   Divers  Orages  Givrage  Turbulence  Onde Orograph.  Cendres Volcan.







- Altitude de l'aérodrome : 459 ft
- Code IATA : CER
- Voir les cartes d'approche


LFRC - Cherbourg / Maupertus

DERNIER METAR :
  • 181800Z AUTO 06011KT 040V100 9999 BKN017 OVC030 14/11 Q1024

METARs EXPIRÉS :
  • 181730Z AUTO 07011KT 9999 BKN017 BKN024 OVC033 14/11 Q1024 NOSIG
  • 181700Z AUTO 07011KT 030V090 9999 BKN013 BKN019 OVC026 15/12 Q1023 BECMG BKN017
  • 181630Z AUTO 07012KT 9999 BKN014 OVC020 15/11 Q1023 BECMG BKN017
  • 181600Z AUTO 07013KT 030V090 9999 BKN012 OVC019 15/12 Q1023 BECMG BKN017
  • 181530Z AUTO 07011KT 9999 BKN010 OVC014 15/12 Q1023 BECMG BKN017

TAF AMD TAF LFRC
Valide du 18 à 16h jusqu'au 19 à 00h UTC


181642Z 1816/1824 06012KT 9999 BKN012
BECMG 1816/1818 BKN017
Pas de NOTAMs connus pour ce terrain.



MET'MAP, la Météo Aéronautique d'un coup d'oeil ! - Copyright ORBIFLY Décembre 2007 - Disclaimer

ORBIFLY MET'MAP TEAM :

Programmation & Développement : Alexandra Zaïnal
Conception & Développement : Baudouin d'Aumeries
Co-Programmation & Développement : Marc-Olivier Méhu
Soutien technique & logistique : Manuel Goepfert

Contact : metmap@orbifly.com




SOURCES & CREDITS :

   NOAA